Windflight — WDF6324 — position and weather

sailwx.info

Track history (hours):
 
Tides and Currents Weather Stations Pressure Air Temp Water Temp Dewpoint Dewpoint Depression Visibility Wind Speed Wind Dir Waves Ship Positions

Windflight

Owner: Windflight Inc., Medina, WA. More information available from US FCC via Universal Licensing System and Coast Guard Vessel Documentation Center.

Last reported at 2015-May-21 21:40 UTC. Time now 2015-May-24 13:15 UTC.
Position N 47°41' W 122°25'.

Length 21 m.

Type: Pleasure craft. MMSI: 367473060.

Date/timePositionNaut miles runAvg speedWind from/ knotsBaromVisibWave heightAir tempDewpointWater temp
2015-May-21 21:40N 47°41' W 122°25'0 0.0
2015-May-21 21:32N 47°41' W 122°25'0 0.0
2015-May-21 21:25N 47°41' W 122°25'0 0.0
2015-May-21 20:32N 47°41' W 122°25'0 0.1
2015-May-21 20:25N 47°41' W 122°25'0 0.0
2015-May-21 19:32N 47°41' W 122°25'0 0.0
2015-May-21 18:58N 47°41' W 122°25'0 0.0
2015-May-21 18:32N 47°41' W 122°25'0 0.0
2015-May-21 18:28N 47°41' W 122°25'0 0.0
2015-May-19 21:17N 47°41' W 122°25'0 0.0
2015-May-19 20:05N 47°41' W 122°25'0 0.0
2015-May-19 19:23N 47°41' W 122°25'0 0.0
2015-May-17 16:35N 47°41' W 122°25'0 0.0
2015-May-17 16:32N 47°41' W 122°25'2 3.0
2015-May-17 15:49N 47°42' W 122°27'2 8.4
2015-May-17 15:33N 47°43' W 122°30'1 1.1
2015-May-17 14:15N 47°42' W 122°32'0 0.0
2015-May-17 11:27N 47°42' W 122°32'0 0.0
2015-May-17 10:21N 47°42' W 122°32'0 0.0
2015-May-17 09:10N 47°42' W 122°32'0 0.0
2015-May-17 03:27N 47°42' W 122°32'0 0.0
2015-May-17 03:27N 47°42' W 122°32'0 0.0
2015-May-17 02:33N 47°42' W 122°32'0 0.0
2015-May-17 02:27N 47°42' W 122°32'0 0.0
2015-May-17 00:45N 47°42' W 122°32'0 0.0
2015-May-16 23:33N 47°42' W 122°32'0 0.0
2015-May-16 23:33N 47°42' W 122°32'0 0.0
2015-May-16 20:03N 47°42' W 122°32'0 0.0
2015-May-16 19:27N 47°42' W 122°32'0 0.0
2015-May-16 18:09N 47°42' W 122°32'0 0.0
2015-May-16 17:57N 47°42' W 122°32'0 0.0
2015-May-16 17:15N 47°42' W 122°32'0 0.0
2015-May-16 16:57N 47°42' W 122°32'0 0.0
2015-May-16 16:21N 47°42' W 122°32'0 0.0
2015-May-16 15:27N 47°42' W 122°32'0 0.0
2015-May-16 12:39N 47°42' W 122°32'0 0.0
2015-May-16 12:27N 47°42' W 122°32'0 0.0
2015-May-16 12:09N 47°42' W 122°32'0 0.0
2015-May-16 11:27N 47°42' W 122°32'0 0.0
2015-May-16 11:09N 47°42' W 122°32'0 0.0
2015-May-16 10:15N 47°42' W 122°32'0 0.0
2015-May-16 09:27N 47°42' W 122°32'0 0.0
2015-May-16 07:03N 47°42' W 122°32'0 0.0
2015-May-16 07:03N 47°42' W 122°32'0 0.0
2015-May-16 02:33N 47°42' W 122°32'0 0.0
2015-May-16 01:03N 47°42' W 122°32'0 0.0
2015-May-16 00:39N 47°42' W 122°32'0 0.0
2015-May-16 00:33N 47°42' W 122°32'0 0.0
2015-May-15 23:24N 47°42' W 122°32'0 0.0
2015-May-15 23:24N 47°42' W 122°32'0 0.0
2015-May-15 20:22N 47°42' W 122°32'3 3.6
2015-May-15 19:33N 47°40' W 122°29'9 8.5
2015-May-15 18:33N 47°31' W 122°29'9 9.5
2015-May-15 17:33N 47°22' W 122°32'1 0.1
2015-May-14 20:33N 47°21' W 122°33'8 8.5
2015-May-14 19:33N 47°29' W 122°30'6 9.0
2015-May-14 18:52N 47°35' W 122°27'3 8.4
2015-May-14 18:33N 47°37' W 122°25'0 6.8
2015-May-14 18:32N 47°37' W 122°25'1 1.1
2015-May-14 17:33N 47°38' W 122°24'0 0.0
2015-May-14 17:32N 47°38' W 122°24'3 3.0
2015-May-14 16:33N 47°40' W 122°26'0 9.7
2015-May-14 16:32N 47°40' W 122°26'1 1.0
2015-May-14 15:32N 47°41' W 122°25'0 0.2
2015-May-14 15:20N 47°41' W 122°25'0 0.1
2015-May-14 14:32N 47°41' W 122°25'0 0.0
2015-May-14 14:20N 47°41' W 122°25'0 0.0
2015-May-14 13:32N 47°41' W 122°25'0 0.0
2015-May-14 13:20N 47°41' W 122°25'0 0.0
2015-May-14 12:32N 47°41' W 122°25'0 0.0
2015-May-14 12:20N 47°41' W 122°25'0 0.0
2015-May-14 11:32N 47°41' W 122°25'0 0.0
2015-May-14 11:29N 47°41' W 122°25'0 0.0
2015-May-14 10:32N 47°41' W 122°25'0 0.0
2015-May-14 10:29N 47°41' W 122°25'0 0.0
2015-May-14 09:32N 47°41' W 122°25'0 0.0
2015-May-14 09:29N 47°41' W 122°25'0 0.0
2015-May-14 08:32N 47°41' W 122°25'0 0.0
2015-May-14 08:29N 47°41' W 122°25'0 0.0
2015-May-14 07:32N 47°41' W 122°25'0 0.0
2015-May-14 07:29N 47°41' W 122°25'0 0.0
2015-May-14 06:32N 47°41' W 122°25'0 0.0
2015-May-14 05:53N 47°41' W 122°25'0 0.0
2015-May-14 05:32N 47°41' W 122°25'0 0.0
2015-May-14 04:32N 47°41' W 122°25'0 0.0
2015-May-14 04:08N 47°41' W 122°25'0 0.0
2015-May-14 03:32N 47°41' W 122°25'0 0.0
2015-May-14 03:23N 47°41' W 122°25'0 0.0
2015-May-14 02:32N 47°41' W 122°25'0 0.0
2015-May-14 02:32N 47°41' W 122°25'0 0.0
2015-May-14 01:32N 47°41' W 122°25'0 0.0
2015-May-14 01:32N 47°41' W 122°25'0 0.0
2015-May-14 00:32N 47°41' W 122°25'0 0.0
2015-May-14 00:32N 47°41' W 122°25'0 0.0
2015-May-13 23:32N 47°41' W 122°25'0 0.0
2015-May-13 23:32N 47°41' W 122°25'0 0.0
2015-May-13 22:32N 47°41' W 122°25'0 0.0
2015-May-13 22:26N 47°41' W 122°25'0 0.0
2015-May-13 21:32N 47°41' W 122°25'0 0.0
2015-May-13 21:26N 47°41' W 122°25'0 0.0
2015-May-13 20:32N 47°41' W 122°25'0 0.0
2015-May-13 20:26N 47°41' W 122°25'0 0.0
2015-May-13 19:32N 47°41' W 122°25'0 0.0
2015-May-13 19:26N 47°41' W 122°25'0 0.0
2015-May-13 18:32N 47°41' W 122°25'0 0.1
2015-May-13 18:26N 47°41' W 122°25'0 0.0
2015-May-13 17:32N 47°41' W 122°25'0 0.0
2015-May-13 16:50N 47°41' W 122°25'0 0.0
2015-May-13 16:32N 47°41' W 122°25'0 0.0
2015-May-13 16:20N 47°41' W 122°25'0 0.0
2015-May-13 15:32N 47°41' W 122°25'0 0.0
2015-May-13 15:29N 47°41' W 122°25'0 0.0
2015-May-13 14:32N 47°41' W 122°25'0 0.0
2015-May-13 14:29N 47°41' W 122°25'0 0.0
2015-May-13 13:32N 47°41' W 122°25'0 0.0
2015-May-13 13:29N 47°41' W 122°25'0 0.0
2015-May-13 12:32N 47°41' W 122°25'0 0.0
2015-May-13 12:29N 47°41' W 122°25'0 0.0
2015-May-13 11:32N 47°41' W 122°25'0 0.0
2015-May-13 11:23N 47°41' W 122°25'0 0.0
2015-May-13 10:32N 47°41' W 122°25'0 0.0
2015-May-13 10:23N 47°41' W 122°25'0 0.0
2015-May-13 09:32N 47°41' W 122°25'0 0.0
2015-May-13 09:23N 47°41' W 122°25'0 0.0
2015-May-13 08:32N 47°41' W 122°25'0 0.0
2015-May-13 08:23N 47°41' W 122°25'0 0.0
2015-May-13 07:32N 47°41' W 122°25'0 0.0
2015-May-13 07:17N 47°41' W 122°25'0 0.0
2015-May-13 06:32N 47°41' W 122°25'0 0.0
2015-May-13 06:32N 47°41' W 122°25'0 0.0
2015-May-13 06:17N 47°41' W 122°25'0 0.0
2015-May-13 05:32N 47°41' W 122°25'0 0.0
2015-May-13 04:32N 47°41' W 122°25'0 0.0
2015-May-13 04:32N 47°41' W 122°25'0 0.0
2015-May-13 03:32N 47°41' W 122°25'0 0.0
2015-May-13 03:32N 47°41' W 122°25'0 0.0
2015-May-13 02:32N 47°41' W 122°25'0 0.0
2015-May-13 02:26N 47°41' W 122°25'0 0.0
2015-May-13 01:32N 47°41' W 122°25'0 0.4
2015-May-13 01:26N 47°41' W 122°25'0 0.0
2015-May-13 00:29N 47°41' W 122°25'0 0.0
2015-May-13 00:26N 47°41' W 122°25'0 0.0
2015-May-12 23:32N 47°41' W 122°25'0 0.0
2015-May-12 23:26N 47°41' W 122°25'0 0.0
2015-May-12 22:32N 47°41' W 122°25'0 0.0
2015-May-12 22:20N 47°41' W 122°25'0 0.0
2015-May-12 21:32N 47°41' W 122°25'0 0.0
2015-May-12 21:29N 47°41' W 122°25'0 0.0
2015-May-12 20:32N 47°41' W 122°25'0 0.0
2015-May-12 20:23N 47°41' W 122°25'0 0.0
2015-May-12 19:32N 47°41' W 122°25'0 0.0
2015-May-12 19:23N 47°41' W 122°25'0 0.0
2015-May-12 18:32N 47°41' W 122°25'0 0.0
2015-May-12 18:23N 47°41' W 122°25'0 0.0
2015-May-12 17:32N 47°41' W 122°25'0 0.0
2015-May-12 17:32N 47°41' W 122°25'0 0.0
2015-May-12 16:32N 47°41' W 122°25'0 0.0
2015-May-12 16:32N 47°41' W 122°25'0 0.0
2015-May-12 15:32N 47°41' W 122°25'0 0.0
2015-May-12 15:32N 47°41' W 122°25'0 0.0
2015-May-12 14:32N 47°41' W 122°25'0 0.0
2015-May-12 14:26N 47°41' W 122°25'0 0.0
2015-May-12 13:32N 47°41' W 122°25'0 0.0
2015-May-12 12:56N 47°41' W 122°25'0 0.0
2015-May-12 12:32N 47°41' W 122°25'0 0.0
2015-May-12 12:11N 47°41' W 122°25'0 0.0
2015-May-12 11:32N 47°41' W 122°25'0 0.0
2015-May-12 11:26N 47°41' W 122°25'0 0.0
2015-May-12 10:32N 47°41' W 122°25'0 0.2
2015-May-12 10:20N 47°41' W 122°25'0 0.1
2015-May-12 09:32N 47°41' W 122°25'0 0.0
2015-May-12 09:20N 47°41' W 122°25'0 0.0
2015-May-12 08:32N 47°41' W 122°25'0 0.0
2015-May-12 08:20N 47°41' W 122°25'0 0.0
2015-May-12 07:32N 47°41' W 122°25'0 0.8
2015-May-12 07:29N 47°41' W 122°25'0 0.0
2015-May-12 06:32N 47°41' W 122°25'0 0.0
2015-May-12 06:29N 47°41' W 122°25'0 0.0
2015-May-12 06:14N 47°41' W 122°25'0 0.0
2015-May-12 05:32N 47°41' W 122°25'0 0.0
2015-May-12 04:32N 47°41' W 122°25'0 0.0
2015-May-12 04:29N 47°41' W 122°25'0 0.0
2015-May-12 03:32N 47°41' W 122°25'0 0.0
2015-May-12 03:29N 47°41' W 122°25'0 0.0
2015-May-12 02:32N 47°41' W 122°25'0 0.0
2015-May-12 02:23N 47°41' W 122°25'0 0.0
2015-May-12 01:32N 47°41' W 122°25'0 0.0
2015-May-12 01:32N 47°41' W 122°25'0 0.0
2015-May-12 00:32N 47°41' W 122°25'0 0.0
2015-May-12 00:32N 47°41' W 122°25'0 0.0
2015-May-11 23:32N 47°41' W 122°25'0 0.0
2015-May-11 23:32N 47°41' W 122°25'0 0.0
2015-May-11 22:32N 47°41' W 122°25'0 0.0
2015-May-11 22:32N 47°41' W 122°25'  
Track history (hours):
 
Tides and Currents Weather Stations Pressure Air Temp Water Temp Dewpoint Dewpoint Depression Visibility Wind Speed Wind Dir Waves Ship Positions

Windflight

Owner: Windflight Inc., Medina, WA. More information available from US FCC via Universal Licensing System and Coast Guard Vessel Documentation Center.

Last reported at 2015-May-21 21:40 UTC. Time now 2015-May-24 13:15 UTC.
Position N 47°41' W 122°25'.

Length 21 m.

Type: Pleasure craft. MMSI: 367473060.

Date/timePositionNaut miles runAvg speedWind from/ knotsBaromVisibWave heightAir tempDewpointWater temp
2015-May-21 21:40N 47°41' W 122°25'0 0.0
2015-May-21 21:32N 47°41' W 122°25'0 0.0
2015-May-21 21:25N 47°41' W 122°25'0 0.0
2015-May-21 20:32N 47°41' W 122°25'0 0.1
2015-May-21 20:25N 47°41' W 122°25'0 0.0
2015-May-21 19:32N 47°41' W 122°25'0 0.0
2015-May-21 18:58N 47°41' W 122°25'0 0.0
2015-May-21 18:32N 47°41' W 122°25'0 0.0
2015-May-21 18:28N 47°41' W 122°25'0 0.0
2015-May-19 21:17N 47°41' W 122°25'0 0.0
2015-May-19 20:05N 47°41' W 122°25'0 0.0
2015-May-19 19:23N 47°41' W 122°25'0 0.0
2015-May-17 16:35N 47°41' W 122°25'0 0.0
2015-May-17 16:32N 47°41' W 122°25'2 3.0
2015-May-17 15:49N 47°42' W 122°27'2 8.4
2015-May-17 15:33N 47°43' W 122°30'1 1.1
2015-May-17 14:15N 47°42' W 122°32'0 0.0
2015-May-17 11:27N 47°42' W 122°32'0 0.0
2015-May-17 10:21N 47°42' W 122°32'0 0.0
2015-May-17 09:10N 47°42' W 122°32'0 0.0
2015-May-17 03:27N 47°42' W 122°32'0 0.0
2015-May-17 03:27N 47°42' W 122°32'0 0.0
2015-May-17 02:33N 47°42' W 122°32'0 0.0
2015-May-17 02:27N 47°42' W 122°32'0 0.0
2015-May-17 00:45N 47°42' W 122°32'0 0.0
2015-May-16 23:33N 47°42' W 122°32'0 0.0
2015-May-16 23:33N 47°42' W 122°32'0 0.0
2015-May-16 20:03N 47°42' W 122°32'0 0.0
2015-May-16 19:27N 47°42' W 122°32'0 0.0
2015-May-16 18:09N 47°42' W 122°32'0 0.0
2015-May-16 17:57N 47°42' W 122°32'0 0.0
2015-May-16 17:15N 47°42' W 122°32'0 0.0
2015-May-16 16:57N 47°42' W 122°32'0 0.0
2015-May-16 16:21N 47°42' W 122°32'0 0.0
2015-May-16 15:27N 47°42' W 122°32'0 0.0
2015-May-16 12:39N 47°42' W 122°32'0 0.0
2015-May-16 12:27N 47°42' W 122°32'0 0.0
2015-May-16 12:09N 47°42' W 122°32'0 0.0
2015-May-16 11:27N 47°42' W 122°32'0 0.0
2015-May-16 11:09N 47°42' W 122°32'0 0.0
2015-May-16 10:15N 47°42' W 122°32'0 0.0
2015-May-16 09:27N 47°42' W 122°32'0 0.0
2015-May-16 07:03N 47°42' W 122°32'0 0.0
2015-May-16 07:03N 47°42' W 122°32'0 0.0
2015-May-16 02:33N 47°42' W 122°32'0 0.0
2015-May-16 01:03N 47°42' W 122°32'0 0.0
2015-May-16 00:39N 47°42' W 122°32'0 0.0
2015-May-16 00:33N 47°42' W 122°32'0 0.0
2015-May-15 23:24N 47°42' W 122°32'0 0.0
2015-May-15 23:24N 47°42' W 122°32'0 0.0
2015-May-15 20:22N 47°42' W 122°32'3 3.6
2015-May-15 19:33N 47°40' W 122°29'9 8.5
2015-May-15 18:33N 47°31' W 122°29'9 9.5
2015-May-15 17:33N 47°22' W 122°32'1 0.1
2015-May-14 20:33N 47°21' W 122°33'8 8.5
2015-May-14 19:33N 47°29' W 122°30'6 9.0
2015-May-14 18:52N 47°35' W 122°27'3 8.4
2015-May-14 18:33N 47°37' W 122°25'0 6.8
2015-May-14 18:32N 47°37' W 122°25'1 1.1
2015-May-14 17:33N 47°38' W 122°24'0 0.0
2015-May-14 17:32N 47°38' W 122°24'3 3.0
2015-May-14 16:33N 47°40' W 122°26'0 9.7
2015-May-14 16:32N 47°40' W 122°26'1 1.0
2015-May-14 15:32N 47°41' W 122°25'0 0.2
2015-May-14 15:20N 47°41' W 122°25'0 0.1
2015-May-14 14:32N 47°41' W 122°25'0 0.0
2015-May-14 14:20N 47°41' W 122°25'0 0.0
2015-May-14 13:32N 47°41' W 122°25'0 0.0
2015-May-14 13:20N 47°41' W 122°25'0 0.0
2015-May-14 12:32N 47°41' W 122°25'0 0.0
2015-May-14 12:20N 47°41' W 122°25'0 0.0
2015-May-14 11:32N 47°41' W 122°25'0 0.0
2015-May-14 11:29N 47°41' W 122°25'0 0.0
2015-May-14 10:32N 47°41' W 122°25'0 0.0
2015-May-14 10:29N 47°41' W 122°25'0 0.0
2015-May-14 09:32N 47°41' W 122°25'0 0.0
2015-May-14 09:29N 47°41' W 122°25'0 0.0
2015-May-14 08:32N 47°41' W 122°25'0 0.0
2015-May-14 08:29N 47°41' W 122°25'0 0.0
2015-May-14 07:32N 47°41' W 122°25'0 0.0
2015-May-14 07:29N 47°41' W 122°25'0 0.0
2015-May-14 06:32N 47°41' W 122°25'0 0.0
2015-May-14 05:53N 47°41' W 122°25'0 0.0
2015-May-14 05:32N 47°41' W 122°25'0 0.0
2015-May-14 04:32N 47°41' W 122°25'0 0.0
2015-May-14 04:08N 47°41' W 122°25'0 0.0
2015-May-14 03:32N 47°41' W 122°25'0 0.0
2015-May-14 03:23N 47°41' W 122°25'0 0.0
2015-May-14 02:32N 47°41' W 122°25'0 0.0
2015-May-14 02:32N 47°41' W 122°25'0 0.0
2015-May-14 01:32N 47°41' W 122°25'0 0.0
2015-May-14 01:32N 47°41' W 122°25'0 0.0
2015-May-14 00:32N 47°41' W 122°25'0 0.0
2015-May-14 00:32N 47°41' W 122°25'0 0.0
2015-May-13 23:32N 47°41' W 122°25'0 0.0
2015-May-13 23:32N 47°41' W 122°25'0 0.0
2015-May-13 22:32N 47°41' W 122°25'0 0.0
2015-May-13 22:26N 47°41' W 122°25'0 0.0
2015-May-13 21:32N 47°41' W 122°25'0 0.0
2015-May-13 21:26N 47°41' W 122°25'0 0.0
2015-May-13 20:32N 47°41' W 122°25'0 0.0
2015-May-13 20:26N 47°41' W 122°25'0 0.0
2015-May-13 19:32N 47°41' W 122°25'0 0.0
2015-May-13 19:26N 47°41' W 122°25'0 0.0
2015-May-13 18:32N 47°41' W 122°25'0 0.1
2015-May-13 18:26N 47°41' W 122°25'0 0.0
2015-May-13 17:32N 47°41' W 122°25'0 0.0
2015-May-13 16:50N 47°41' W 122°25'0 0.0
2015-May-13 16:32N 47°41' W 122°25'0 0.0
2015-May-13 16:20N 47°41' W 122°25'0 0.0
2015-May-13 15:32N 47°41' W 122°25'0 0.0
2015-May-13 15:29N 47°41' W 122°25'0 0.0
2015-May-13 14:32N 47°41' W 122°25'0 0.0
2015-May-13 14:29N 47°41' W 122°25'0 0.0
2015-May-13 13:32N 47°41' W 122°25'0 0.0
2015-May-13 13:29N 47°41' W 122°25'0 0.0
2015-May-13 12:32N 47°41' W 122°25'0 0.0
2015-May-13 12:29N 47°41' W 122°25'0 0.0
2015-May-13 11:32N 47°41' W 122°25'0 0.0
2015-May-13 11:23N 47°41' W 122°25'0 0.0
2015-May-13 10:32N 47°41' W 122°25'0 0.0
2015-May-13 10:23N 47°41' W 122°25'0 0.0
2015-May-13 09:32N 47°41' W 122°25'0 0.0
2015-May-13 09:23N 47°41' W 122°25'0 0.0
2015-May-13 08:32N 47°41' W 122°25'0 0.0
2015-May-13 08:23N 47°41' W 122°25'0 0.0
2015-May-13 07:32N 47°41' W 122°25'0 0.0
2015-May-13 07:17N 47°41' W 122°25'0 0.0
2015-May-13 06:32N 47°41' W 122°25'0 0.0
2015-May-13 06:32N 47°41' W 122°25'0 0.0
2015-May-13 06:17N 47°41' W 122°25'0 0.0
2015-May-13 05:32N 47°41' W 122°25'0 0.0
2015-May-13 04:32N 47°41' W 122°25'0 0.0
2015-May-13 04:32N 47°41' W 122°25'0 0.0
2015-May-13 03:32N 47°41' W 122°25'0 0.0
2015-May-13 03:32N 47°41' W 122°25'0 0.0
2015-May-13 02:32N 47°41' W 122°25'0 0.0
2015-May-13 02:26N 47°41' W 122°25'0 0.0
2015-May-13 01:32N 47°41' W 122°25'0 0.4
2015-May-13 01:26N 47°41' W 122°25'0 0.0
2015-May-13 00:29N 47°41' W 122°25'0 0.0
2015-May-13 00:26N 47°41' W 122°25'0 0.0
2015-May-12 23:32N 47°41' W 122°25'0 0.0
2015-May-12 23:26N 47°41' W 122°25'0 0.0
2015-May-12 22:32N 47°41' W 122°25'0 0.0
2015-May-12 22:20N 47°41' W 122°25'0 0.0
2015-May-12 21:32N 47°41' W 122°25'0 0.0
2015-May-12 21:29N 47°41' W 122°25'0 0.0
2015-May-12 20:32N 47°41' W 122°25'0 0.0
2015-May-12 20:23N 47°41' W 122°25'0 0.0
2015-May-12 19:32N 47°41' W 122°25'0 0.0
2015-May-12 19:23N 47°41' W 122°25'0 0.0
2015-May-12 18:32N 47°41' W 122°25'0 0.0
2015-May-12 18:23N 47°41' W 122°25'0 0.0
2015-May-12 17:32N 47°41' W 122°25'0 0.0
2015-May-12 17:32N 47°41' W 122°25'0 0.0
2015-May-12 16:32N 47°41' W 122°25'0 0.0
2015-May-12 16:32N 47°41' W 122°25'0 0.0
2015-May-12 15:32N 47°41' W 122°25'0 0.0
2015-May-12 15:32N 47°41' W 122°25'0 0.0
2015-May-12 14:32N 47°41' W 122°25'0 0.0
2015-May-12 14:26N 47°41' W 122°25'0 0.0
2015-May-12 13:32N 47°41' W 122°25'0 0.0
2015-May-12 12:56N 47°41' W 122°25'0 0.0
2015-May-12 12:32N 47°41' W 122°25'0 0.0
2015-May-12 12:11N 47°41' W 122°25'0 0.0
2015-May-12 11:32N 47°41' W 122°25'0 0.0
2015-May-12 11:26N 47°41' W 122°25'0 0.0
2015-May-12 10:32N 47°41' W 122°25'0 0.2
2015-May-12 10:20N 47°41' W 122°25'0 0.1
2015-May-12 09:32N 47°41' W 122°25'0 0.0
2015-May-12 09:20N 47°41' W 122°25'0 0.0
2015-May-12 08:32N 47°41' W 122°25'0 0.0
2015-May-12 08:20N 47°41' W 122°25'0 0.0
2015-May-12 07:32N 47°41' W 122°25'0 0.8
2015-May-12 07:29N 47°41' W 122°25'0 0.0
2015-May-12 06:32N 47°41' W 122°25'0 0.0
2015-May-12 06:29N 47°41' W 122°25'0 0.0
2015-May-12 06:14N 47°41' W 122°25'0 0.0
2015-May-12 05:32N 47°41' W 122°25'0 0.0
2015-May-12 04:32N 47°41' W 122°25'0 0.0
2015-May-12 04:29N 47°41' W 122°25'0 0.0
2015-May-12 03:32N 47°41' W 122°25'0 0.0
2015-May-12 03:29N 47°41' W 122°25'0 0.0
2015-May-12 02:32N 47°41' W 122°25'0 0.0
2015-May-12 02:23N 47°41' W 122°25'0 0.0
2015-May-12 01:32N 47°41' W 122°25'0 0.0
2015-May-12 01:32N 47°41' W 122°25'0 0.0
2015-May-12 00:32N 47°41' W 122°25'0 0.0
2015-May-12 00:32N 47°41' W 122°25'0 0.0
2015-May-11 23:32N 47°41' W 122°25'0 0.0
2015-May-11 23:32N 47°41' W 122°25'0 0.0
2015-May-11 22:32N 47°41' W 122°25'0 0.0
2015-May-11 22:32N 47°41' W 122°25'  

Dump ship's entire track history